sensor_id;sensor_type;location;lat;lon;timestamp;P1;durP1;ratioP1;P2;durP2;ratioP2
19946;SDS011;10135;50.702;7.276;2023-12-22T06:01:16;5.73;;;1.97;;
19946;SDS011;10135;50.702;7.276;2023-12-22T06:03:18;9.53;;;2.60;;
19946;SDS011;10135;50.702;7.276;2023-12-22T06:05:19;10.00;;;2.27;;
19946;SDS011;10135;50.702;7.276;2023-12-22T06:07:19;7.60;;;2.10;;
19946;SDS011;10135;50.702;7.276;2023-12-22T06:09:20;5.77;;;2.50;;
19946;SDS011;10135;50.702;7.276;2023-12-22T06:11:22;9.13;;;2.33;;
19946;SDS011;10135;50.702;7.276;2023-12-22T06:13:22;6.30;;;2.10;;
19946;SDS011;10135;50.702;7.276;2023-12-22T06:15:24;7.83;;;2.13;;
19946;SDS011;10135;50.702;7.276;2023-12-22T06:17:24;9.03;;;2.17;;
19946;SDS011;10135;50.702;7.276;2023-12-22T06:19:25;9.77;;;2.30;;
19946;SDS011;10135;50.702;7.276;2023-12-22T06:21:28;5.93;;;2.00;;
19946;SDS011;10135;50.702;7.276;2023-12-22T06:23:29;5.77;;;1.90;;
19946;SDS011;10135;50.702;7.276;2023-12-22T06:25:30;9.37;;;2.23;;
19946;SDS011;10135;50.702;7.276;2023-12-22T06:27:30;8.67;;;2.20;;
19946;SDS011;10135;50.702;7.276;2023-12-22T06:29:31;10.17;;;2.43;;
19946;SDS011;10135;50.702;7.276;2023-12-22T06:31:32;7.97;;;2.20;;
19946;SDS011;10135;50.702;7.276;2023-12-22T06:33:32;9.07;;;2.20;;
19946;SDS011;10135;50.702;7.276;2023-12-22T06:35:33;9.60;;;2.20;;
19946;SDS011;10135;50.702;7.276;2023-12-22T06:37:34;7.93;;;2.00;;
19946;SDS011;10135;50.702;7.276;2023-12-22T06:39:34;11.30;;;2.07;;
19946;SDS011;10135;50.702;7.276;2023-12-22T06:41:35;10.53;;;2.27;;
19946;SDS011;10135;50.702;7.276;2023-12-22T06:43:35;7.87;;;1.90;;
19946;SDS011;10135;50.702;7.276;2023-12-22T06:45:36;9.53;;;2.00;;
19946;SDS011;10135;50.702;7.276;2023-12-22T06:47:37;7.37;;;2.27;;
19946;SDS011;10135;50.702;7.276;2023-12-22T06:49:38;5.93;;;1.97;;
19946;SDS011;10135;50.702;7.276;2023-12-22T06:51:38;8.23;;;2.00;;
19946;SDS011;10135;50.702;7.276;2023-12-22T06:53:39;10.80;;;2.50;;
19946;SDS011;10135;50.702;7.276;2023-12-22T06:55:39;6.63;;;2.10;;
19946;SDS011;10135;50.702;7.276;2023-12-22T06:57:40;10.87;;;2.70;;
19946;SDS011;10135;50.702;7.276;2023-12-22T06:59:41;4.10;;;1.97;;
19946;SDS011;10135;50.702;7.276;2023-12-22T07:01:41;8.67;;;1.70;;
19946;SDS011;10135;50.702;7.276;2023-12-22T07:03:42;6.63;;;2.23;;
19946;SDS011;10135;50.702;7.276;2023-12-22T07:05:43;6.27;;;2.13;;
19946;SDS011;10135;50.702;7.276;2023-12-22T07:07:44;5.83;;;2.13;;
19946;SDS011;10135;50.702;7.276;2023-12-22T07:09:45;7.70;;;2.40;;
19946;SDS011;10135;50.702;7.276;2023-12-22T07:11:49;4.90;;;1.57;;
19946;SDS011;10135;50.702;7.276;2023-12-22T07:13:52;2.97;;;1.80;;
19946;SDS011;10135;50.702;7.276;2023-12-22T07:15:53;6.27;;;1.93;;
19946;SDS011;10135;50.702;7.276;2023-12-22T07:17:54;5.13;;;1.97;;
19946;SDS011;10135;50.702;7.276;2023-12-22T07:19:55;3.27;;;1.60;;
19946;SDS011;10135;50.702;7.276;2023-12-22T07:21:57;1.63;;;1.53;;
19946;SDS011;10135;50.702;7.276;2023-12-22T07:23:58;3.97;;;1.70;;
19946;SDS011;10135;50.702;7.276;2023-12-22T07:25:59;4.03;;;1.50;;
19946;SDS011;10135;50.702;7.276;2023-12-22T07:27:59;3.03;;;1.87;;
19946;SDS011;10135;50.702;7.276;2023-12-22T07:30:00;5.03;;;1.30;;
19946;SDS011;10135;50.702;7.276;2023-12-22T07:32:00;5.43;;;1.80;;
19946;SDS011;10135;50.702;7.276;2023-12-22T07:34:01;3.43;;;1.33;;
19946;SDS011;10135;50.702;7.276;2023-12-22T07:36:02;3.73;;;1.63;;
19946;SDS011;10135;50.702;7.276;2023-12-22T07:38:03;4.27;;;1.70;;
19946;SDS011;10135;50.702;7.276;2023-12-22T07:40:04;3.97;;;1.40;;
19946;SDS011;10135;50.702;7.276;2023-12-22T07:42:05;5.00;;;1.57;;
19946;SDS011;10135;50.702;7.276;2023-12-22T07:44:06;2.97;;;1.40;;
19946;SDS011;10135;50.702;7.276;2023-12-22T07:46:07;5.90;;;1.70;;
19946;SDS011;10135;50.702;7.276;2023-12-22T07:48:09;5.50;;;1.70;;
19946;SDS011;10135;50.702;7.276;2023-12-22T07:50:10;4.10;;;1.87;;
19946;SDS011;10135;50.702;7.276;2023-12-22T07:52:10;3.90;;;1.80;;
19946;SDS011;10135;50.702;7.276;2023-12-22T07:54:11;3.07;;;2.07;;
19946;SDS011;10135;50.702;7.276;2023-12-22T07:56:11;5.37;;;1.90;;
19946;SDS011;10135;50.702;7.276;2023-12-22T07:58:12;5.33;;;1.90;;
19946;SDS011;10135;50.702;7.276;2023-12-22T08:00:13;6.13;;;1.90;;
19946;SDS011;10135;50.702;7.276;2023-12-22T08:02:15;4.77;;;1.90;;
19946;SDS011;10135;50.702;7.276;2023-12-22T08:04:15;5.50;;;2.17;;
19946;SDS011;10135;50.702;7.276;2023-12-22T08:06:16;6.23;;;2.13;;
19946;SDS011;10135;50.702;7.276;2023-12-22T08:08:17;6.60;;;2.37;;
19946;SDS011;10135;50.702;7.276;2023-12-22T08:10:17;9.80;;;2.87;;
19946;SDS011;10135;50.702;7.276;2023-12-22T08:12:18;12.43;;;2.40;;
19946;SDS011;10135;50.702;7.276;2023-12-22T08:14:19;9.73;;;2.50;;
19946;SDS011;10135;50.702;7.276;2023-12-22T08:16:20;10.53;;;2.60;;
19946;SDS011;10135;50.702;7.276;2023-12-22T08:18:20;9.20;;;2.47;;
19946;SDS011;10135;50.702;7.276;2023-12-22T08:20:21;10.27;;;2.70;;
19946;SDS011;10135;50.702;7.276;2023-12-22T08:22:22;11.73;;;2.63;;
19946;SDS011;10135;50.702;7.276;2023-12-22T08:24:23;10.90;;;2.93;;
19946;SDS011;10135;50.702;7.276;2023-12-22T08:26:23;9.20;;;2.40;;
19946;SDS011;10135;50.702;7.276;2023-12-22T08:28:24;12.63;;;2.87;;
19946;SDS011;10135;50.702;7.276;2023-12-22T08:30:25;10.23;;;2.80;;
19946;SDS011;10135;50.702;7.276;2023-12-22T08:32:26;14.57;;;2.97;;
19946;SDS011;10135;50.702;7.276;2023-12-22T08:34:27;14.63;;;2.93;;
19946;SDS011;10135;50.702;7.276;2023-12-22T08:36:28;9.53;;;3.20;;
19946;SDS011;10135;50.702;7.276;2023-12-22T08:38:29;12.07;;;2.60;;
19946;SDS011;10135;50.702;7.276;2023-12-22T08:40:29;11.30;;;2.73;;
19946;SDS011;10135;50.702;7.276;2023-12-22T08:42:30;13.53;;;3.07;;
19946;SDS011;10135;50.702;7.276;2023-12-22T08:44:30;11.20;;;3.20;;
19946;SDS011;10135;50.702;7.276;2023-12-22T08:46:31;10.77;;;2.67;;
19946;SDS011;10135;50.702;7.276;2023-12-22T08:48:32;15.20;;;3.23;;
19946;SDS011;10135;50.702;7.276;2023-12-22T08:50:34;11.33;;;2.70;;
19946;SDS011;10135;50.702;7.276;2023-12-22T08:52:34;13.30;;;2.80;;
19946;SDS011;10135;50.702;7.276;2023-12-22T08:54:35;8.10;;;2.70;;
19946;SDS011;10135;50.702;7.276;2023-12-22T08:56:36;11.90;;;2.83;;
19946;SDS011;10135;50.702;7.276;2023-12-22T08:58:36;9.63;;;2.60;;
19946;SDS011;10135;50.702;7.276;2023-12-22T09:00:37;11.77;;;3.53;;
19946;SDS011;10135;50.702;7.276;2023-12-22T09:02:38;9.50;;;2.97;;
19946;SDS011;10135;50.702;7.276;2023-12-22T09:04:38;14.37;;;2.73;;
19946;SDS011;10135;50.702;7.276;2023-12-22T09:06:39;8.43;;;2.80;;
19946;SDS011;10135;50.702;7.276;2023-12-22T09:08:39;10.30;;;2.93;;
19946;SDS011;10135;50.702;7.276;2023-12-22T09:10:40;7.53;;;2.40;;
19946;SDS011;10135;50.702;7.276;2023-12-22T09:12:41;8.00;;;2.17;;
19946;SDS011;10135;50.702;7.276;2023-12-22T09:14:42;6.37;;;2.50;;
19946;SDS011;10135;50.702;7.276;2023-12-22T09:16:43;8.73;;;3.23;;
19946;SDS011;10135;50.702;7.276;2023-12-22T09:18:45;12.83;;;3.53;;
19946;SDS011;10135;50.702;7.276;2023-12-22T09:20:46;9.87;;;2.53;;
19946;SDS011;10135;50.702;7.276;2023-12-22T09:22:46;10.00;;;2.57;;
19946;SDS011;10135;50.702;7.276;2023-12-22T09:24:47;8.50;;;3.20;;
19946;SDS011;10135;50.702;7.276;2023-12-22T09:26:48;7.20;;;2.53;;
19946;SDS011;10135;50.702;7.276;2023-12-22T09:28:50;10.63;;;2.80;;
19946;SDS011;10135;50.702;7.276;2023-12-22T09:30:51;11.50;;;2.97;;
19946;SDS011;10135;50.702;7.276;2023-12-22T09:32:52;6.67;;;3.07;;
19946;SDS011;10135;50.702;7.276;2023-12-22T09:34:53;7.07;;;2.67;;
19946;SDS011;10135;50.702;7.276;2023-12-22T09:36:55;8.17;;;2.90;;
19946;SDS011;10135;50.702;7.276;2023-12-22T09:38:56;8.80;;;2.90;;
19946;SDS011;10135;50.702;7.276;2023-12-22T09:40:57;7.83;;;2.80;;
19946;SDS011;10135;50.702;7.276;2023-12-22T09:42:58;8.23;;;2.27;;
19946;SDS011;10135;50.702;7.276;2023-12-22T09:45:00;6.57;;;2.23;;
19946;SDS011;10135;50.702;7.276;2023-12-22T09:47:04;6.07;;;2.50;;
19946;SDS011;10135;50.702;7.276;2023-12-22T09:49:06;8.13;;;2.53;;
19946;SDS011;10135;50.702;7.276;2023-12-22T09:51:07;9.23;;;2.90;;
19946;SDS011;10135;50.702;7.276;2023-12-22T09:53:11;10.60;;;3.00;;
19946;SDS011;10135;50.702;7.276;2023-12-22T09:55:14;7.23;;;2.30;;
19946;SDS011;10135;50.702;7.276;2023-12-22T09:57:14;7.77;;;3.17;;
19946;SDS011;10135;50.702;7.276;2023-12-22T09:59:16;6.97;;;2.60;;
19946;SDS011;10135;50.702;7.276;2023-12-22T10:01:19;6.30;;;2.40;;
19946;SDS011;10135;50.702;7.276;2023-12-22T10:03:22;6.50;;;2.40;;
19946;SDS011;10135;50.702;7.276;2023-12-22T10:05:26;8.63;;;2.90;;
19946;SDS011;10135;50.702;7.276;2023-12-22T10:07:26;7.63;;;2.37;;
19946;SDS011;10135;50.702;7.276;2023-12-22T10:09:28;5.20;;;2.00;;
19946;SDS011;10135;50.702;7.276;2023-12-22T10:11:30;4.83;;;2.20;;
19946;SDS011;10135;50.702;7.276;2023-12-22T10:13:33;2.97;;;1.87;;
19946;SDS011;10135;50.702;7.276;2023-12-22T10:15:37;9.40;;;2.70;;
19946;SDS011;10135;50.702;7.276;2023-12-22T10:17:42;5.20;;;2.30;;
19946;SDS011;10135;50.702;7.276;2023-12-22T10:19:43;4.83;;;2.30;;
19946;SDS011;10135;50.702;7.276;2023-12-22T10:21:44;6.30;;;2.00;;
19946;SDS011;10135;50.702;7.276;2023-12-22T10:23:44;4.50;;;2.27;;
19946;SDS011;10135;50.702;7.276;2023-12-22T10:25:45;5.27;;;1.90;;
19946;SDS011;10135;50.702;7.276;2023-12-22T10:27:47;6.63;;;1.80;;
19946;SDS011;10135;50.702;7.276;2023-12-22T10:29:53;2.60;;;1.60;;
19946;SDS011;10135;50.702;7.276;2023-12-22T10:31:56;3.03;;;1.73;;
19946;SDS011;10135;50.702;7.276;2023-12-22T10:33:56;2.13;;;1.77;;
19946;SDS011;10135;50.702;7.276;2023-12-22T10:35:58;2.33;;;1.80;;
19946;SDS011;10135;50.702;7.276;2023-12-22T10:37:59;3.43;;;1.87;;
19946;SDS011;10135;50.702;7.276;2023-12-22T10:40:00;2.10;;;1.47;;
19946;SDS011;10135;50.702;7.276;2023-12-22T10:42:05;2.23;;;1.40;;
19946;SDS011;10135;50.702;7.276;2023-12-22T10:44:06;3.23;;;1.70;;
19946;SDS011;10135;50.702;7.276;2023-12-22T10:46:07;3.00;;;1.60;;
19946;SDS011;10135;50.702;7.276;2023-12-22T10:48:08;3.33;;;1.50;;
19946;SDS011;10135;50.702;7.276;2023-12-22T10:50:11;3.47;;;1.47;;
19946;SDS011;10135;50.702;7.276;2023-12-22T10:52:17;2.53;;;1.50;;
19946;SDS011;10135;50.702;7.276;2023-12-22T10:54:20;2.83;;;1.30;;
19946;SDS011;10135;50.702;7.276;2023-12-22T10:56:21;3.07;;;1.47;;
19946;SDS011;10135;50.702;7.276;2023-12-22T10:58:22;1.33;;;1.20;;
19946;SDS011;10135;50.702;7.276;2023-12-22T11:00:23;1.77;;;1.30;;
19946;SDS011;10135;50.702;7.276;2023-12-22T11:02:26;3.50;;;1.37;;
19946;SDS011;10135;50.702;7.276;2023-12-22T11:04:29;4.07;;;1.70;;
19946;SDS011;10135;50.702;7.276;2023-12-22T11:06:34;3.07;;;1.30;;
19946;SDS011;10135;50.702;7.276;2023-12-22T11:08:37;2.30;;;1.30;;
19946;SDS011;10135;50.702;7.276;2023-12-22T11:10:41;1.90;;;1.20;;
19946;SDS011;10135;50.702;7.276;2023-12-22T11:12:49;3.93;;;1.30;;
19946;SDS011;10135;50.702;7.276;2023-12-22T11:14:52;1.63;;;1.10;;
19946;SDS011;10135;50.702;7.276;2023-12-22T11:16:55;1.20;;;1.00;;
19946;SDS011;10135;50.702;7.276;2023-12-22T11:18:57;1.97;;;1.30;;
19946;SDS011;10135;50.702;7.276;2023-12-22T11:21:00;1.50;;;1.00;;
19946;SDS011;10135;50.702;7.276;2023-12-22T11:23:06;0.90;;;0.90;;
19946;SDS011;10135;50.702;7.276;2023-12-22T11:25:09;1.23;;;1.13;;
19946;SDS011;10135;50.702;7.276;2023-12-22T11:27:10;1.20;;;1.10;;
19946;SDS011;10135;50.702;7.276;2023-12-22T11:29:13;1.40;;;1.00;;
19946;SDS011;10135;50.702;7.276;2023-12-22T11:31:15;1.93;;;1.20;;
19946;SDS011;10135;50.702;7.276;2023-12-22T11:33:17;2.37;;;1.20;;
19946;SDS011;10135;50.702;7.276;2023-12-22T11:35:19;0.97;;;0.97;;
19946;SDS011;10135;50.702;7.276;2023-12-22T11:37:23;1.93;;;1.20;;
19946;SDS011;10135;50.702;7.276;2023-12-22T11:39:24;1.20;;;1.10;;
19946;SDS011;10135;50.702;7.276;2023-12-22T11:41:26;1.27;;;1.10;;
19946;SDS011;10135;50.702;7.276;2023-12-22T11:43:31;2.30;;;1.30;;
19946;SDS011;10135;50.702;7.276;2023-12-22T11:45:35;2.03;;;1.13;;
19946;SDS011;10135;50.702;7.276;2023-12-22T11:47:36;1.03;;;1.03;;
19946;SDS011;10135;50.702;7.276;2023-12-22T11:49:37;1.57;;;1.20;;
19946;SDS011;10135;50.702;7.276;2023-12-22T11:51:38;1.50;;;1.40;;
19946;SDS011;10135;50.702;7.276;2023-12-22T11:53:39;2.97;;;1.20;;
19946;SDS011;10135;50.702;7.276;2023-12-22T12:00:52;1.07;;;1.07;;
19946;SDS011;10135;50.702;7.276;2023-12-22T12:02:56;1.40;;;1.30;;
19946;SDS011;10135;50.702;7.276;2023-12-22T12:04:57;2.50;;;1.37;;
19946;SDS011;10135;50.702;7.276;2023-12-22T12:07:00;2.20;;;1.27;;
19946;SDS011;10135;50.702;7.276;2023-12-22T12:09:45;2.40;;;1.33;;
19946;SDS011;10135;50.702;7.276;2023-12-22T12:13:54;1.30;;;1.20;;
19946;SDS011;10135;50.702;7.276;2023-12-22T12:16:11;1.20;;;1.10;;
19946;SDS011;10135;50.702;7.276;2023-12-22T12:18:13;2.43;;;1.30;;
19946;SDS011;10135;50.702;7.276;2023-12-22T12:20:15;1.20;;;1.20;;
19946;SDS011;10135;50.702;7.276;2023-12-22T12:22:17;1.90;;;1.43;;
19946;SDS011;10135;50.702;7.276;2023-12-22T12:24:18;0.90;;;0.90;;
19946;SDS011;10135;50.702;7.276;2023-12-22T12:26:19;0.90;;;0.90;;
19946;SDS011;10135;50.702;7.276;2023-12-22T12:28:28;1.37;;;1.20;;
19946;SDS011;10135;50.702;7.276;2023-12-22T12:30:32;1.03;;;1.00;;
19946;SDS011;10135;50.702;7.276;2023-12-22T12:32:35;1.03;;;1.00;;
19946;SDS011;10135;50.702;7.276;2023-12-22T12:34:36;1.00;;;1.00;;
19946;SDS011;10135;50.702;7.276;2023-12-22T12:36:38;1.70;;;0.90;;
19946;SDS011;10135;50.702;7.276;2023-12-22T12:40:50;1.20;;;1.10;;
19946;SDS011;10135;50.702;7.276;2023-12-22T12:42:51;1.10;;;1.10;;
19946;SDS011;10135;50.702;7.276;2023-12-22T12:44:52;1.20;;;1.10;;
19946;SDS011;10135;50.702;7.276;2023-12-22T12:46:54;2.07;;;1.17;;
19946;SDS011;10135;50.702;7.276;2023-12-22T12:51:06;3.07;;;1.00;;
19946;SDS011;10135;50.702;7.276;2023-12-22T12:53:07;1.93;;;1.10;;
19946;SDS011;10135;50.702;7.276;2023-12-22T12:55:08;2.00;;;1.30;;
19946;SDS011;10135;50.702;7.276;2023-12-22T12:57:15;1.07;;;1.07;;
19946;SDS011;10135;50.702;7.276;2023-12-22T12:59:16;1.60;;;1.17;;
19946;SDS011;10135;50.702;7.276;2023-12-22T13:01:20;1.30;;;1.20;;
19946;SDS011;10135;50.702;7.276;2023-12-22T13:03:21;2.00;;;1.43;;
19946;SDS011;10135;50.702;7.276;2023-12-22T13:05:23;1.17;;;1.10;;
19946;SDS011;10135;50.702;7.276;2023-12-22T13:07:24;1.43;;;1.40;;
19946;SDS011;10135;50.702;7.276;2023-12-22T13:09:30;2.90;;;1.20;;
19946;SDS011;10135;50.702;7.276;2023-12-22T13:11:36;2.40;;;1.20;;
19946;SDS011;10135;50.702;7.276;2023-12-22T13:13:41;1.60;;;1.50;;
19946;SDS011;10135;50.702;7.276;2023-12-22T13:15:42;2.67;;;1.07;;
19946;SDS011;10135;50.702;7.276;2023-12-22T13:17:44;1.40;;;1.30;;
19946;SDS011;10135;50.702;7.276;2023-12-22T13:19:46;1.40;;;1.30;;
19946;SDS011;10135;50.702;7.276;2023-12-22T13:21:47;1.20;;;1.10;;
19946;SDS011;10135;50.702;7.276;2023-12-22T13:23:48;1.60;;;1.50;;
19946;SDS011;10135;50.702;7.276;2023-12-22T13:26:21;1.13;;;1.10;;
19946;SDS011;10135;50.702;7.276;2023-12-22T13:28:25;1.30;;;1.10;;
19946;SDS011;10135;50.702;7.276;2023-12-22T13:32:40;1.07;;;1.00;;
19946;SDS011;10135;50.702;7.276;2023-12-22T13:34:46;1.00;;;1.00;;
19946;SDS011;10135;50.702;7.276;2023-12-22T13:36:51;1.20;;;1.20;;
19946;SDS011;10135;50.702;7.276;2023-12-22T13:38:52;0.80;;;0.80;;
19946;SDS011;10135;50.702;7.276;2023-12-22T13:40:54;1.33;;;1.00;;
19946;SDS011;10135;50.702;7.276;2023-12-22T13:42:55;3.07;;;1.60;;
19946;SDS011;10135;50.702;7.276;2023-12-22T13:44:57;2.70;;;1.30;;
19946;SDS011;10135;50.702;7.276;2023-12-22T13:47:01;1.60;;;1.20;;
19946;SDS011;10135;50.702;7.276;2023-12-22T13:49:04;3.43;;;1.77;;
19946;SDS011;10135;50.702;7.276;2023-12-22T13:51:05;1.83;;;1.30;;
19946;SDS011;10135;50.702;7.276;2023-12-22T13:53:09;2.33;;;1.30;;
19946;SDS011;10135;50.702;7.276;2023-12-22T13:57:21;2.30;;;1.20;;
19946;SDS011;10135;50.702;7.276;2023-12-22T13:59:32;1.97;;;1.30;;
19946;SDS011;10135;50.702;7.276;2023-12-22T14:01:33;1.83;;;1.60;;
19946;SDS011;10135;50.702;7.276;2023-12-22T14:03:35;1.30;;;1.20;;
19946;SDS011;10135;50.702;7.276;2023-12-22T14:05:35;3.37;;;1.30;;
19946;SDS011;10135;50.702;7.276;2023-12-22T14:07:36;1.00;;;1.00;;
19946;SDS011;10135;50.702;7.276;2023-12-22T14:09:37;2.60;;;1.30;;
19946;SDS011;10135;50.702;7.276;2023-12-22T14:11:38;1.33;;;1.23;;
19946;SDS011;10135;50.702;7.276;2023-12-22T14:13:39;1.37;;;1.10;;
19946;SDS011;10135;50.702;7.276;2023-12-22T14:15:44;2.20;;;1.33;;
19946;SDS011;10135;50.702;7.276;2023-12-22T14:17:45;1.83;;;1.60;;
19946;SDS011;10135;50.702;7.276;2023-12-22T14:19:46;2.20;;;1.20;;
19946;SDS011;10135;50.702;7.276;2023-12-22T14:21:49;2.20;;;1.50;;
19946;SDS011;10135;50.702;7.276;2023-12-22T14:23:49;3.17;;;1.53;;
19946;SDS011;10135;50.702;7.276;2023-12-22T14:25:50;1.47;;;1.37;;
19946;SDS011;10135;50.702;7.276;2023-12-22T14:27:52;2.30;;;1.30;;
19946;SDS011;10135;50.702;7.276;2023-12-22T14:29:57;1.80;;;1.47;;
19946;SDS011;10135;50.702;7.276;2023-12-22T14:31:57;2.43;;;1.30;;
19946;SDS011;10135;50.702;7.276;2023-12-22T14:33:58;3.57;;;1.10;;
19946;SDS011;10135;50.702;7.276;2023-12-22T14:35:59;1.40;;;1.30;;
19946;SDS011;10135;50.702;7.276;2023-12-22T14:37:59;2.07;;;1.20;;
19946;SDS011;10135;50.702;7.276;2023-12-22T14:40:00;1.70;;;1.30;;
19946;SDS011;10135;50.702;7.276;2023-12-22T14:42:01;1.40;;;1.30;;
19946;SDS011;10135;50.702;7.276;2023-12-22T14:44:03;2.10;;;1.20;;
19946;SDS011;10135;50.702;7.276;2023-12-22T14:46:04;1.50;;;1.40;;
19946;SDS011;10135;50.702;7.276;2023-12-22T14:48:05;1.83;;;1.20;;
19946;SDS011;10135;50.702;7.276;2023-12-22T14:50:06;1.37;;;1.27;;
19946;SDS011;10135;50.702;7.276;2023-12-22T14:52:07;1.73;;;1.10;;
19946;SDS011;10135;50.702;7.276;2023-12-22T14:54:08;1.63;;;1.40;;
19946;SDS011;10135;50.702;7.276;2023-12-22T14:56:09;1.43;;;1.33;;
19946;SDS011;10135;50.702;7.276;2023-12-22T14:58:09;2.30;;;1.53;;
19946;SDS011;10135;50.702;7.276;2023-12-22T15:00:11;2.50;;;1.50;;
19946;SDS011;10135;50.702;7.276;2023-12-22T15:02:12;1.57;;;1.20;;
19946;SDS011;10135;50.702;7.276;2023-12-22T15:04:13;3.70;;;1.30;;
19946;SDS011;10135;50.702;7.276;2023-12-22T15:06:13;2.90;;;1.60;;
19946;SDS011;10135;50.702;7.276;2023-12-22T15:08:14;2.87;;;1.40;;
19946;SDS011;10135;50.702;7.276;2023-12-22T15:10:15;1.20;;;1.20;;
19946;SDS011;10135;50.702;7.276;2023-12-22T15:12:16;3.17;;;1.10;;
19946;SDS011;10135;50.702;7.276;2023-12-22T15:14:17;1.93;;;1.30;;
19946;SDS011;10135;50.702;7.276;2023-12-22T15:16:18;2.17;;;1.33;;
19946;SDS011;10135;50.702;7.276;2023-12-22T15:18:18;1.20;;;1.10;;
19946;SDS011;10135;50.702;7.276;2023-12-22T15:20:19;3.03;;;1.20;;
19946;SDS011;10135;50.702;7.276;2023-12-22T15:22:20;3.03;;;1.50;;
19946;SDS011;10135;50.702;7.276;2023-12-22T15:24:22;1.30;;;1.20;;
19946;SDS011;10135;50.702;7.276;2023-12-22T15:26:23;2.80;;;1.20;;
19946;SDS011;10135;50.702;7.276;2023-12-22T15:28:27;1.30;;;1.20;;
19946;SDS011;10135;50.702;7.276;2023-12-22T15:30:28;1.20;;;1.20;;
19946;SDS011;10135;50.702;7.276;2023-12-22T15:32:30;1.87;;;1.27;;
19946;SDS011;10135;50.702;7.276;2023-12-22T15:34:30;1.40;;;1.30;;
19946;SDS011;10135;50.702;7.276;2023-12-22T15:36:31;1.40;;;1.30;;
19946;SDS011;10135;50.702;7.276;2023-12-22T15:38:32;1.77;;;1.40;;
19946;SDS011;10135;50.702;7.276;2023-12-22T15:40:32;2.37;;;1.10;;
19946;SDS011;10135;50.702;7.276;2023-12-22T15:42:33;1.30;;;1.30;;
19946;SDS011;10135;50.702;7.276;2023-12-22T15:44:38;3.63;;;1.30;;
19946;SDS011;10135;50.702;7.276;2023-12-22T15:46:40;4.00;;;1.57;;
19946;SDS011;10135;50.702;7.276;2023-12-22T15:48:41;2.77;;;1.40;;
19946;SDS011;10135;50.702;7.276;2023-12-22T15:50:42;2.53;;;1.77;;
19946;SDS011;10135;50.702;7.276;2023-12-22T15:52:44;1.80;;;1.70;;
19946;SDS011;10135;50.702;7.276;2023-12-22T15:54:45;1.90;;;1.47;;
19946;SDS011;10135;50.702;7.276;2023-12-22T15:56:45;2.07;;;1.30;;
19946;SDS011;10135;50.702;7.276;2023-12-22T15:58:46;1.83;;;1.73;;
19946;SDS011;10135;50.702;7.276;2023-12-22T16:00:47;1.60;;;1.20;;
19946;SDS011;10135;50.702;7.276;2023-12-22T16:02:47;2.30;;;1.40;;
19946;SDS011;10135;50.702;7.276;2023-12-22T16:04:48;2.93;;;1.57;;
19946;SDS011;10135;50.702;7.276;2023-12-22T16:06:49;1.63;;;1.50;;
19946;SDS011;10135;50.702;7.276;2023-12-22T16:08:50;2.00;;;1.60;;
19946;SDS011;10135;50.702;7.276;2023-12-22T16:10:50;2.20;;;1.57;;
19946;SDS011;10135;50.702;7.276;2023-12-22T16:12:51;1.87;;;1.60;;
19946;SDS011;10135;50.702;7.276;2023-12-22T16:14:52;2.60;;;1.47;;
19946;SDS011;10135;50.702;7.276;2023-12-22T16:16:54;2.30;;;1.87;;
19946;SDS011;10135;50.702;7.276;2023-12-22T16:18:56;4.33;;;1.70;;
19946;SDS011;10135;50.702;7.276;2023-12-22T16:20:56;3.80;;;1.60;;
19946;SDS011;10135;50.702;7.276;2023-12-22T16:22:57;1.93;;;1.40;;
19946;SDS011;10135;50.702;7.276;2023-12-22T16:24:57;1.50;;;1.40;;
19946;SDS011;10135;50.702;7.276;2023-12-22T16:26:58;1.97;;;1.60;;
19946;SDS011;10135;50.702;7.276;2023-12-22T16:28:59;3.40;;;2.10;;
19946;SDS011;10135;50.702;7.276;2023-12-22T16:31:03;2.10;;;1.50;;
19946;SDS011;10135;50.702;7.276;2023-12-22T16:33:04;1.63;;;1.53;;
19946;SDS011;10135;50.702;7.276;2023-12-22T16:35:04;3.60;;;1.40;;
19946;SDS011;10135;50.702;7.276;2023-12-22T16:37:05;2.00;;;1.47;;
19946;SDS011;10135;50.702;7.276;2023-12-22T16:39:06;3.10;;;1.70;;
19946;SDS011;10135;50.702;7.276;2023-12-22T16:41:07;5.00;;;1.80;;
19946;SDS011;10135;50.702;7.276;2023-12-22T16:43:09;3.03;;;1.73;;
19946;SDS011;10135;50.702;7.276;2023-12-22T16:45:10;2.20;;;1.50;;
19946;SDS011;10135;50.702;7.276;2023-12-22T16:47:11;1.90;;;1.43;;
19946;SDS011;10135;50.702;7.276;2023-12-22T16:49:12;1.50;;;1.40;;
19946;SDS011;10135;50.702;7.276;2023-12-22T16:51:12;3.17;;;1.57;;
19946;SDS011;10135;50.702;7.276;2023-12-22T16:53:13;1.50;;;1.40;;
19946;SDS011;10135;50.702;7.276;2023-12-22T16:55:14;1.60;;;1.50;;
19946;SDS011;10135;50.702;7.276;2023-12-22T16:57:17;3.30;;;1.43;;
19946;SDS011;10135;50.702;7.276;2023-12-22T16:59:18;1.80;;;1.30;;
19946;SDS011;10135;50.702;7.276;2023-12-22T17:01:19;2.23;;;1.50;;
19946;SDS011;10135;50.702;7.276;2023-12-22T17:03:20;3.40;;;1.70;;
19946;SDS011;10135;50.702;7.276;2023-12-22T17:05:20;2.07;;;1.20;;
19946;SDS011;10135;50.702;7.276;2023-12-22T17:07:21;4.33;;;2.47;;
19946;SDS011;10135;50.702;7.276;2023-12-22T17:09:22;1.93;;;1.70;;
19946;SDS011;10135;50.702;7.276;2023-12-22T17:11:23;2.70;;;1.50;;
19946;SDS011;10135;50.702;7.276;2023-12-22T17:13:24;2.50;;;1.60;;
19946;SDS011;10135;50.702;7.276;2023-12-22T17:15:25;2.07;;;1.57;;
19946;SDS011;10135;50.702;7.276;2023-12-22T17:17:25;1.40;;;1.30;;
19946;SDS011;10135;50.702;7.276;2023-12-22T17:19:27;2.07;;;1.47;;
19946;SDS011;10135;50.702;7.276;2023-12-22T17:21:27;1.63;;;1.30;;
19946;SDS011;10135;50.702;7.276;2023-12-22T17:23:28;1.50;;;1.40;;
19946;SDS011;10135;50.702;7.276;2023-12-22T17:25:29;1.93;;;1.70;;
19946;SDS011;10135;50.702;7.276;2023-12-22T17:27:29;4.23;;;1.63;;
19946;SDS011;10135;50.702;7.276;2023-12-22T17:29:30;3.23;;;1.70;;
19946;SDS011;10135;50.702;7.276;2023-12-22T17:31:31;1.63;;;1.53;;
19946;SDS011;10135;50.702;7.276;2023-12-22T17:33:32;3.27;;;1.80;;
19946;SDS011;10135;50.702;7.276;2023-12-22T17:35:33;5.17;;;2.53;;
19946;SDS011;10135;50.702;7.276;2023-12-22T17:37:34;2.47;;;1.90;;
19946;SDS011;10135;50.702;7.276;2023-12-22T17:39:34;2.60;;;1.70;;
19946;SDS011;10135;50.702;7.276;2023-12-22T17:41:35;6.33;;;2.57;;
19946;SDS011;10135;50.702;7.276;2023-12-22T17:43:36;3.47;;;2.03;;
19946;SDS011;10135;50.702;7.276;2023-12-22T17:45:36;2.30;;;2.10;;
19946;SDS011;10135;50.702;7.276;2023-12-22T17:47:37;3.13;;;2.20;;
19946;SDS011;10135;50.702;7.276;2023-12-22T17:49:37;3.33;;;2.17;;
19946;SDS011;10135;50.702;7.276;2023-12-22T17:51:38;2.67;;;2.20;;
19946;SDS011;10135;50.702;7.276;2023-12-22T17:53:39;2.30;;;2.10;;
19946;SDS011;10135;50.702;7.276;2023-12-22T17:55:41;3.97;;;1.90;;
19946;SDS011;10135;50.702;7.276;2023-12-22T17:57:41;4.33;;;2.17;;
19946;SDS011;10135;50.702;7.276;2023-12-22T17:59:42;3.80;;;2.37;;
19946;SDS011;10135;50.702;7.276;2023-12-22T18:01:43;2.33;;;1.63;;
19946;SDS011;10135;50.702;7.276;2023-12-22T18:03:48;3.83;;;1.70;;
19946;SDS011;10135;50.702;7.276;2023-12-22T18:05:55;5.40;;;1.83;;
19946;SDS011;10135;50.702;7.276;2023-12-22T18:07:56;1.93;;;1.70;;
19946;SDS011;10135;50.702;7.276;2023-12-22T18:09:56;2.03;;;1.60;;
19946;SDS011;10135;50.702;7.276;2023-12-22T18:11:57;2.30;;;2.10;;
19946;SDS011;10135;50.702;7.276;2023-12-22T18:13:58;2.43;;;1.70;;
19946;SDS011;10135;50.702;7.276;2023-12-22T18:15:58;2.30;;;1.70;;
19946;SDS011;10135;50.702;7.276;2023-12-22T18:17:59;2.77;;;1.60;;
19946;SDS011;10135;50.702;7.276;2023-12-22T18:19:59;5.03;;;1.60;;
19946;SDS011;10135;50.702;7.276;2023-12-22T18:22:00;4.30;;;1.90;;
19946;SDS011;10135;50.702;7.276;2023-12-22T18:24:01;4.37;;;1.77;;
19946;SDS011;10135;50.702;7.276;2023-12-22T18:26:02;2.73;;;1.73;;
19946;SDS011;10135;50.702;7.276;2023-12-22T18:28:04;2.33;;;1.63;;